Time;durP1;ratioP1;P1;durP2;ratioP2;P2;SDS_P1;SDS_P2;PMS_P1;PMS_P2;Temp;Humidity;BMP_temperature;BMP_pressure;BME280_temperature;BME280_humidity;BME280_pressure;Samples;Min_cycle;Max_cycle;Signal;HPM_P1;HPM_P2
2022/08/28 00:00:04;;;;;;;48.63;39.87;;;;;;;18.03;100.00;100187.50;4989020;28;20200;-76
2022/08/28 00:02:30;;;;;;;51.50;39.77;;;;;;;18.01;100.00;100182.31;4983645;28;20185;-75
2022/08/28 00:04:55;;;;;;;49.20;39.87;;;;;;;18.02;100.00;100183.19;4984964;28;20202;-76
2022/08/28 00:07:20;;;;;;;49.17;39.03;;;;;;;18.01;100.00;100184.09;4987360;28;20195;-74
2022/08/28 00:09:46;;;;;;;45.17;37.37;;;;;;;18.01;100.00;100182.31;4984298;28;20225;-75
2022/08/28 00:12:11;;;;;;;46.07;36.40;;;;;;;18.02;100.00;100180.56;4985160;28;20220;-77
2022/08/28 00:14:37;;;;;;;43.53;35.40;;;;;;;18.05;100.00;100186.53;4983172;28;20209;-77
2022/08/28 00:17:03;;;;;;;42.83;35.30;;;;;;;18.07;100.00;100186.47;4984222;28;20282;-75
2022/08/28 00:19:29;;;;;;;43.50;33.67;;;;;;;18.10;100.00;100189.81;4980778;28;20196;-75
2022/08/28 00:21:54;;;;;;;41.57;33.50;;;;;;;18.15;100.00;100178.31;4985897;28;20266;-75
2022/08/28 00:24:20;;;;;;;42.83;36.33;;;;;;;18.20;100.00;100181.56;4985745;28;20223;-75
2022/08/28 00:29:30;;;;;;;46.47;36.73;;;;;;;18.24;100.00;100180.53;4986615;28;20266;-74
2022/08/28 00:31:56;;;;;;;42.90;36.07;;;;;;;18.25;100.00;100183.06;4989636;28;20203;-76
2022/08/28 00:34:22;;;;;;;41.03;34.67;;;;;;;18.29;100.00;100181.19;4980783;28;20182;-77
2022/08/28 00:36:47;;;;;;;46.87;37.73;;;;;;;18.33;100.00;100174.88;4988771;28;20197;-78
2022/08/28 00:39:13;;;;;;;46.63;37.03;;;;;;;18.34;100.00;100176.56;4987256;28;20212;-77
2022/08/28 00:41:40;;;;;;;45.37;37.33;;;;;;;18.36;100.00;100174.75;4987143;28;20275;-76
2022/08/28 00:44:14;;;;;;;44.43;35.80;;;;;;;18.35;100.00;100175.66;4985013;28;20683;-77
2022/08/28 00:46:46;;;;;;;46.40;36.83;;;;;;;18.29;100.00;100173.31;4981701;28;20595;-75
2022/08/28 00:49:14;;;;;;;46.70;38.47;;;;;;;18.19;100.00;100170.25;4988837;28;20199;-76
2022/08/28 00:54:25;;;;;;;46.00;37.43;;;;;;;18.06;100.00;100171.69;4987570;28;20224;-76
2022/08/28 00:56:52;;;;;;;42.90;35.83;;;;;;;18.03;100.00;100179.66;4989093;28;20213;-74
2022/08/28 00:59:19;;;;;;;41.87;35.90;;;;;;;18.01;100.00;100178.88;4984632;28;20188;-77
2022/08/28 01:01:46;;;;;;;42.50;35.93;;;;;;;17.96;100.00;100181.66;4991143;28;20246;-75
2022/08/28 01:04:17;;;;;;;44.00;36.77;;;;;;;17.88;100.00;100179.34;4987273;28;20536;-75
2022/08/28 01:06:45;;;;;;;47.27;37.90;;;;;;;17.83;100.00;100182.16;4989331;28;20216;-75
2022/08/28 01:09:11;;;;;;;51.40;39.67;;;;;;;17.84;100.00;100177.75;4985567;28;20191;-75
2022/08/28 01:11:40;;;;;;;46.63;39.60;;;;;;;17.82;100.00;100176.97;4986500;28;20205;-74
2022/08/28 01:14:07;;;;;;;51.13;41.20;;;;;;;17.81;100.00;100178.75;4981943;28;20175;-77
2022/08/28 01:16:34;;;;;;;52.30;41.70;;;;;;;17.77;100.00;100176.34;4986395;28;20234;-75
2022/08/28 01:19:00;;;;;;;47.37;39.27;;;;;;;17.71;100.00;100187.03;4986903;28;20284;-75
2022/08/28 01:21:36;;;;;;;46.50;37.43;;;;;;;17.71;100.00;100184.41;4985950;28;20203;-75
2022/08/28 01:24:06;;;;;;;43.33;35.90;;;;;;;17.70;100.00;100188.78;4989528;28;20274;-77
2022/08/28 01:26:32;;;;;;;42.33;36.33;;;;;;;17.68;100.00;100181.00;4986008;28;20221;-76
2022/08/28 01:28:58;;;;;;;44.50;35.83;;;;;;;17.70;100.00;100180.94;4984904;28;20247;-76
2022/08/28 01:31:25;;;;;;;46.83;38.00;;;;;;;17.72;100.00;100186.13;4984867;28;20216;-76
2022/08/28 01:33:50;;;;;;;46.83;36.50;;;;;;;17.72;100.00;100184.34;4979615;28;20210;-76
2022/08/28 01:36:17;;;;;;;41.67;34.97;;;;;;;17.73;100.00;100188.66;4982373;28;20224;-74
2022/08/28 01:38:46;;;;;;;44.20;35.47;;;;;;;17.76;100.00;100180.69;4979124;28;20187;-75
2022/08/28 01:41:12;;;;;;;44.70;35.73;;;;;;;17.77;100.00;100182.41;4967694;28;20190;-74
2022/08/28 01:43:39;;;;;;;44.60;36.53;;;;;;;17.83;100.00;100186.53;4964028;28;20210;-74
2022/08/28 01:46:04;;;;;;;44.30;36.17;;;;;;;17.85;100.00;100183.88;4963850;28;20219;-77
2022/08/28 01:48:33;;;;;;;43.13;35.57;;;;;;;17.88;100.00;100187.19;4963008;28;20182;-75
2022/08/28 01:50:59;;;;;;;46.27;35.67;;;;;;;17.89;100.00;100183.66;4962823;28;20185;-74
2022/08/28 01:53:26;;;;;;;41.03;34.53;;;;;;;17.91;100.00;100187.09;4967250;28;20220;-74
2022/08/28 01:55:53;;;;;;;43.00;34.40;;;;;;;17.98;100.00;100187.72;4962412;28;20237;-75
2022/08/28 01:58:19;;;;;;;41.67;33.23;;;;;;;18.03;100.00;100195.38;4968282;28;20183;-75
2022/08/28 02:00:45;;;;;;;39.03;32.47;;;;;;;18.08;100.00;100193.41;4964397;28;20622;-75
2022/08/28 02:03:11;;;;;;;41.53;34.00;;;;;;;18.10;100.00;100197.66;4965447;28;20681;-74
2022/08/28 02:05:38;;;;;;;40.50;33.47;;;;;;;18.12;100.00;100197.59;4966067;28;20701;-76
2022/08/28 02:08:05;;;;;;;41.77;33.33;;;;;;;18.13;100.00;100201.91;4968557;28;20182;-76
2022/08/28 02:10:34;;;;;;;43.13;33.53;;;;;;;18.09;100.00;100195.09;4963703;28;20221;-75
2022/08/28 02:13:00;;;;;;;42.97;34.07;;;;;;;18.08;100.00;100193.41;4966977;28;20234;-76
2022/08/28 02:15:28;;;;;;;43.53;34.23;;;;;;;18.05;100.00;100198.78;4966589;28;20215;-77
2022/08/28 02:17:54;;;;;;;43.03;34.23;;;;;;;17.96;100.00;100194.75;4967279;28;20666;-74
2022/08/28 02:20:21;;;;;;;42.60;35.70;;;;;;;17.82;100.00;100196.16;4966632;28;20285;-75
2022/08/28 02:22:46;;;;;;;41.47;33.80;;;;;;;17.86;100.00;100196.00;4969046;28;20188;-75
2022/08/28 02:25:13;;;;;;;41.00;34.60;;;;;;;17.81;100.00;100191.84;4967537;28;20582;-76
2022/08/28 02:27:40;;;;;;;40.70;34.53;;;;;;;17.81;100.00;100193.59;4967249;28;20202;-75
2022/08/28 02:30:08;;;;;;;39.27;34.20;;;;;;;17.78;100.00;100196.31;4965327;28;20187;-75
2022/08/28 02:32:34;;;;;;;38.27;32.80;;;;;;;17.75;100.00;100202.53;4966132;28;20233;-76
2022/08/28 02:34:59;;;;;;;38.53;32.77;;;;;;;17.74;100.00;100195.59;4968441;28;20453;-74
2022/08/28 02:37:25;;;;;;;40.67;34.33;;;;;;;17.69;100.00;100192.34;4966461;28;20658;-74
2022/08/28 02:39:55;;;;;;;38.57;34.03;;;;;;;17.66;100.00;100195.06;4967133;28;20189;-75
2022/08/28 02:42:20;;;;;;;41.83;34.40;;;;;;;17.63;100.00;100192.56;4972536;28;20190;-76
2022/08/28 02:44:45;;;;;;;46.03;36.47;;;;;;;17.60;100.00;100193.56;4965074;28;20233;-74
2022/08/28 02:47:11;;;;;;;44.83;37.13;;;;;;;17.56;100.00;100188.47;4966343;28;20244;-74
2022/08/28 02:49:36;;;;;;;43.37;35.87;;;;;;;17.51;100.00;100191.28;4965921;28;20245;-74
2022/08/28 02:52:03;;;;;;;44.33;37.00;;;;;;;17.46;100.00;100181.00;4966373;28;20297;-75
2022/08/28 02:54:29;;;;;;;43.90;36.13;;;;;;;17.43;100.00;100185.53;4963326;28;20222;-76
2022/08/28 02:56:54;;;;;;;42.63;35.53;;;;;;;17.42;100.00;100183.81;4964238;28;20289;-74
2022/08/28 02:59:20;;;;;;;39.83;34.83;;;;;;;17.42;100.00;100186.44;4966452;28;20237;-74
2022/08/28 03:01:45;;;;;;;39.43;34.27;;;;;;;17.43;100.00;100186.34;4969301;28;20245;-76
2022/08/28 03:04:11;;;;;;;40.03;33.97;;;;;;;17.45;100.00;100175.84;4966574;28;20285;-75
2022/08/28 03:06:36;;;;;;;39.23;33.47;;;;;;;17.49;100.00;100182.66;4966849;28;20576;-77
2022/08/28 03:09:03;;;;;;;40.87;34.53;;;;;;;17.50;100.00;100173.88;4965701;28;20558;-75
2022/08/28 03:11:28;;;;;;;41.43;32.77;;;;;;;17.54;100.00;100177.25;4966486;28;20666;-75
2022/08/28 03:13:54;;;;;;;38.37;32.90;;;;;;;17.55;100.00;100181.53;4967871;28;20272;-76
2022/08/28 03:16:19;;;;;;;40.17;34.13;;;;;;;17.50;100.00;100181.72;4964530;28;20698;-74
2022/08/28 03:18:45;;;;;;;39.63;33.83;;;;;;;17.44;100.00;100180.22;4965913;28;20203;-74
2022/08/28 03:21:10;;;;;;;43.10;37.03;;;;;;;17.38;100.00;100180.47;4965401;28;20584;-74
2022/08/28 03:23:36;;;;;;;48.03;38.47;;;;;;;17.41;100.00;100182.94;4967346;28;20393;-75
2022/08/28 03:26:04;;;;;;;49.10;40.33;;;;;;;17.45;100.00;100179.31;4970384;28;20217;-76
2022/08/28 03:28:33;;;;;;;51.40;41.30;;;;;;;17.52;100.00;100179.91;4969481;28;20187;-75
2022/08/28 03:30:59;;;;;;;51.13;42.53;;;;;;;17.55;100.00;100184.16;4967737;28;20610;-74
2022/08/28 03:33:26;;;;;;;55.27;42.23;;;;;;;17.60;100.00;100182.22;4965263;28;20297;-74
2022/08/28 03:35:51;;;;;;;53.20;41.83;;;;;;;17.62;100.00;100185.63;4964131;28;20646;-74
2022/08/28 03:38:18;;;;;;;56.23;44.07;;;;;;;17.64;100.00;100189.03;4962739;28;20190;-75
2022/08/28 03:40:45;;;;;;;61.40;45.50;;;;;;;17.55;100.00;100195.50;4962756;28;20747;-75
2022/08/28 03:43:13;;;;;;;57.93;45.43;;;;;;;17.62;100.00;100198.72;4970535;28;20193;-74
2022/08/28 03:45:39;;;;;;;54.57;43.80;;;;;;;17.62;100.00;100198.72;4959434;28;20209;-74
2022/08/28 03:48:04;;;;;;;54.07;42.60;;;;;;;17.64;100.00;100195.13;4966448;28;20241;-75
2022/08/28 03:50:30;;;;;;;52.67;42.57;;;;;;;17.66;100.00;100198.53;4966209;28;20186;-74
2022/08/28 03:52:55;;;;;;;55.90;42.97;;;;;;;17.65;100.00;100203.84;4968801;28;20709;-74
2022/08/28 03:55:21;;;;;;;55.87;44.10;;;;;;;17.63;100.00;100201.25;4964128;28;20252;-75
2022/08/28 03:57:47;;;;;;;53.53;42.87;;;;;;;17.65;100.00;100198.59;4966729;28;20280;-76
2022/08/28 04:00:13;;;;;;;55.53;44.53;;;;;;;17.61;100.00;100200.50;4966611;28;20341;-75
2022/08/28 04:02:40;;;;;;;56.63;43.00;;;;;;;17.67;100.00;100204.63;4963956;28;20181;-74
2022/08/28 04:05:07;;;;;;;54.33;43.07;;;;;;;17.64;100.00;100202.13;4965945;28;20269;-75
2022/08/28 04:07:32;;;;;;;57.30;42.87;;;;;;;17.69;100.00;100194.97;4965537;28;20186;-74
2022/08/28 04:09:58;;;;;;;53.17;43.53;;;;;;;17.65;100.00;100199.44;4963061;28;20697;-75
2022/08/28 04:12:24;;;;;;;58.90;45.30;;;;;;;17.63;100.00;100200.44;4969169;28;20745;-75
2022/08/28 04:14:49;;;;;;;57.90;44.83;;;;;;;17.57;100.00;100196.28;4962142;28;20210;-75
2022/08/28 04:17:15;;;;;;;56.83;45.53;;;;;;;17.59;100.00;100190.97;4963832;28;20346;-75
2022/08/28 04:19:41;;;;;;;60.23;43.90;;;;;;;17.59;100.00;100199.69;4963292;28;20221;-75
2022/08/28 04:22:07;;;;;;;58.10;44.97;;;;;;;17.55;100.00;100203.34;4964003;28;20654;-76
2022/08/28 04:24:32;;;;;;;60.13;45.70;;;;;;;17.61;100.00;100200.50;4969868;28;20221;-76
2022/08/28 04:26:58;;;;;;;57.00;45.13;;;;;;;17.56;100.00;100196.34;4968111;28;20194;-76
2022/08/28 04:29:23;;;;;;;61.83;45.27;;;;;;;17.60;100.00;100200.53;4964571;28;20186;-76
2022/08/28 04:31:49;;;;;;;59.83;45.50;;;;;;;17.63;100.00;100205.66;4964779;28;20192;-75
2022/08/28 04:34:14;;;;;;;56.53;45.20;;;;;;;17.59;100.00;100209.31;4964198;28;20194;-74
2022/08/28 04:36:40;;;;;;;60.50;45.40;;;;;;;17.68;100.00;100207.19;4966315;28;20980;-75
2022/08/28 04:39:07;;;;;;;56.80;45.67;;;;;;;17.68;100.00;100212.41;4964581;28;20186;-75
2022/08/28 04:41:35;;;;;;;55.17;44.60;;;;;;;17.78;100.00;100214.66;4970171;28;20280;-75
2022/08/28 04:44:01;;;;;;;56.93;44.20;;;;;;;17.73;100.00;100209.59;4962648;28;20572;-74
2022/08/28 04:46:26;;;;;;;55.57;44.57;;;;;;;17.75;100.00;100214.78;4966593;28;20213;-75
2022/08/28 04:48:52;;;;;;;57.30;43.97;;;;;;;17.70;100.00;100216.72;4969288;28;20672;-74
2022/08/28 04:51:17;;;;;;;60.53;43.83;;;;;;;17.80;100.00;100218.06;4967214;28;20182;-75
2022/08/28 04:53:42;;;;;;;53.63;44.77;;;;;;;17.79;100.00;100219.84;4965369;28;20763;-74
2022/08/28 04:56:10;;;;;;;54.43;43.90;;;;;;;17.81;100.00;100212.78;4964261;28;20645;-75
2022/08/28 04:58:36;;;;;;;53.10;42.83;;;;;;;17.89;100.00;100216.84;4966314;28;20200;-75
2022/08/28 05:01:08;;;;;;;53.00;42.43;;;;;;;17.68;100.00;100212.41;4968047;28;20194;-75
2022/08/28 05:03:34;;;;;;;51.53;41.83;;;;;;;17.76;100.00;100217.34;4963758;28;20189;-75
2022/08/28 05:05:59;;;;;;;49.40;41.20;;;;;;;17.85;100.00;100217.91;4962714;28;20512;-74
2022/08/28 05:08:26;;;;;;;49.20;41.37;;;;;;;17.81;100.00;100228.50;4962152;28;20270;-75
2022/08/28 05:10:53;;;;;;;52.43;42.07;;;;;;;17.89;100.00;100225.56;4967383;28;20182;-75
2022/08/28 05:13:19;;;;;;;52.83;42.13;;;;;;;17.97;100.00;100226.13;4965287;28;20393;-75
2022/08/28 05:15:48;;;;;;;46.73;40.20;;;;;;;17.88;100.00;100226.47;4964462;28;20293;-75
2022/08/28 05:18:16;;;;;;;50.80;39.43;;;;;;;17.92;100.00;100222.78;4963637;28;20277;-74
2022/08/28 05:20:45;;;;;;;42.63;37.47;;;;;;;17.93;100.00;100221.03;4962630;28;20190;-76
2022/08/28 05:23:14;;;;;;;43.60;37.97;;;;;;;18.01;100.00;100221.59;4964663;28;20573;-75
2022/08/28 05:25:43;;;;;;;45.43;38.80;;;;;;;18.01;100.00;100223.38;4965141;28;20239;-74
2022/08/28 05:28:10;;;;;;;48.23;39.43;;;;;;;17.99;100.00;100223.47;4968262;28;20237;-74
2022/08/28 05:30:38;;;;;;;50.33;39.57;;;;;;;18.02;100.00;100228.53;4962486;28;20195;-76
2022/08/28 05:33:04;;;;;;;45.73;39.03;;;;;;;18.12;100.00;100231.63;4962692;28;20209;-75
2022/08/28 05:35:32;;;;;;;45.63;39.63;;;;;;;18.07;100.00;100231.00;4963268;28;20213;-76
2022/08/28 05:37:58;;;;;;;46.67;39.83;;;;;;;18.14;100.00;100232.44;4958993;28;20698;-75
2022/08/28 05:40:23;;;;;;;44.43;38.63;;;;;;;18.08;100.00;100236.16;4965550;28;20190;-77
2022/08/28 05:42:49;;;;;;;46.90;38.67;;;;;;;18.24;100.00;100238.16;4964198;28;20265;-75
2022/08/28 05:45:15;;;;;;;48.40;38.97;;;;;;;18.28;100.00;100239.72;4966482;28;20215;-75
2022/08/28 05:47:40;;;;;;;49.77;40.67;;;;;;;18.20;100.00;100236.56;4964925;28;20199;-74
2022/08/28 05:50:07;;;;;;;45.13;39.20;;;;;;;18.35;100.00;100232.47;4964030;28;20195;-75
2022/08/28 05:52:34;;;;;;;45.80;38.50;;;;;;;18.27;100.00;100236.25;4960918;28;21189;-75
2022/08/28 05:54:59;;;;;;;44.63;36.77;;;;;;;18.35;100.00;100237.69;4965151;28;20203;-74
2022/08/28 05:57:25;;;;;;;40.33;35.17;;;;;;;18.30;100.00;100243.13;4961697;28;20194;-75
2022/08/28 05:59:50;;;;;;;43.13;37.67;;;;;;;18.47;100.00;100239.78;4963218;28;20192;-75
2022/08/28 06:02:15;;;;;;;41.37;36.27;;;;;;;18.41;100.00;100242.66;4960259;28;20274;-74
2022/08/28 06:04:41;;;;;;;39.43;34.93;;;;;;;18.45;100.00;100243.41;4963354;28;20222;-75
2022/08/28 06:07:07;;;;;;;37.57;33.50;;;;;;;18.64;100.00;100246.09;4962853;28;20191;-76
2022/08/28 06:09:32;;;;;;;37.57;32.73;;;;;;;18.61;100.00;100240.97;4963988;28;21027;-77
2022/08/28 06:11:59;;;;;;;38.03;34.03;;;;;;;18.63;100.00;100242.59;4964677;28;20189;-75
2022/08/28 06:14:25;;;;;;;39.50;35.30;;;;;;;18.84;100.00;100251.28;4959327;28;20244;-75
2022/08/28 06:16:53;;;;;;;39.83;35.43;;;;;;;18.94;100.00;100251.75;4967615;28;20184;-74
2022/08/28 06:19:21;;;;;;;36.53;32.80;;;;;;;18.80;100.00;100254.13;4964231;28;20539;-75
2022/08/28 06:21:50;;;;;;;36.97;33.10;;;;;;;19.03;100.00;100255.75;4962554;28;20192;-74
2022/08/28 06:24:19;;;;;;;35.23;31.43;;;;;;;18.97;100.00;100264.75;4963456;28;20192;-75
2022/08/28 06:26:44;;;;;;;36.23;32.37;;;;;;;19.16;100.00;100253.44;4964560;28;20652;-75
2022/08/28 06:29:14;;;;;;;35.83;32.13;;;;;;;19.22;100.00;100258.38;4961189;28;20200;-74
2022/08/28 06:31:40;;;;;;;35.07;31.37;;;;;;;19.07;100.00;100265.19;4968483;28;20302;-74
2022/08/28 06:34:06;;;;;;;35.50;31.77;;;;;;;19.31;100.00;100259.75;4968727;28;20209;-74
2022/08/28 06:36:35;;;;;;;37.40;33.40;;;;;;;19.38;100.00;100262.94;4969610;28;20226;-78
2022/08/28 06:39:02;;;;;;;38.83;34.67;;;;;;;19.39;100.00;100268.13;4972356;28;20193;-75
2022/08/28 06:41:28;;;;;;;34.80;31.20;;;;;;;19.16;100.00;100263.94;4976272;28;20365;-74
2022/08/28 06:43:55;;;;;;;36.40;32.60;;;;;;;19.17;100.00;100274.34;4977639;28;20213;-76
2022/08/28 06:46:20;;;;;;;35.20;31.40;;;;;;;19.17;100.00;100278.75;4967979;28;20304;-75
2022/08/28 06:48:46;;;;;;;35.70;31.77;;;;;;;19.12;100.00;100276.34;4968147;28;20187;-74
2022/08/28 06:51:13;;;;;;;35.63;31.97;;;;;;;19.27;100.00;100274.78;4971453;28;20184;-75
2022/08/28 06:53:40;;;;;;;35.13;31.73;;;;;;;19.45;100.00;100280.94;4966053;28;20221;-75
2022/08/28 06:56:19;;;;;;;34.50;31.00;;;;;;;19.28;100.00;100286.97;4966138;28;20214;-74
2022/08/28 06:58:46;;;;;;;35.93;32.13;;;;;;;19.40;100.00;100287.34;4965126;28;20230;-76
2022/08/28 07:01:17;;;;;;;36.90;33.20;;;;;;;19.69;100.00;100290.38;4967667;28;20196;-75
2022/08/28 07:03:44;;;;;;;40.30;35.97;;;;;;;19.74;100.00;100291.84;4967810;28;20181;-75
2022/08/28 07:06:12;;;;;;;34.47;31.07;;;;;;;19.53;100.00;100285.84;4967832;28;20701;-75
2022/08/28 07:08:39;;;;;;;36.30;32.23;;;;;;;19.80;100.00;100296.00;4967249;28;20729;-74
2022/08/28 07:11:10;;;;;;;33.33;30.13;;;;;;;19.63;100.00;100294.13;4971936;28;20213;-74
2022/08/28 07:13:35;;;;;;;27.73;25.13;;;;;;;19.69;100.00;100293.00;4963602;28;20213;-75
2022/08/28 07:16:01;;;;;;;31.07;27.87;;;;;;;19.86;100.00;100298.31;4964357;28;20220;-74
2022/08/28 07:18:27;;;;;;;26.90;24.40;;;;;;;19.80;100.00;100298.63;4964711;28;20195;-76
2022/08/28 07:20:59;;;;;;;25.63;23.07;;;;;;;19.74;100.00;100301.53;4970689;28;20197;-76
2022/08/28 07:23:25;;;;;;;22.47;20.53;;;;;;;19.71;100.00;100304.28;4989129;28;21970;-76
2022/08/28 07:25:51;;;;;;;22.40;20.40;;;;;;;19.78;100.00;100301.28;4971181;28;20292;-77
2022/08/28 07:28:16;;;;;;;26.10;23.80;;;;;;;20.08;100.00;100308.66;4975925;28;20669;-77
2022/08/28 07:30:42;;;;;;;24.00;21.50;;;;;;;20.22;100.00;100317.66;4971874;28;20285;-74
2022/08/28 07:33:07;;;;;;;26.97;24.30;;;;;;;20.37;100.00;100308.19;4969296;28;20241;-75
2022/08/28 07:35:33;;;;;;;21.77;19.85;;;;;;;20.17;100.00;100319.66;4970101;28;20475;-74
2022/08/28 07:37:58;;;;;;;21.83;19.83;;;;;;;20.34;100.00;100314.44;4979467;28;20181;-77
2022/08/28 07:40:23;;;;;;;22.30;20.40;;;;;;;20.09;100.00;100320.88;4976362;28;20741;-76
2022/08/28 07:45:34;;;;;;;21.50;19.40;;;;;;;20.51;100.00;100312.72;4972179;28;20347;-74
2022/08/28 07:48:03;;;;;;;23.70;21.50;;;;;;;20.97;100.00;100315.66;4972810;28;20186;-72
2022/08/28 07:50:28;;;;;;;21.43;19.43;;;;;;;20.85;100.00;100314.53;4984568;28;20593;-76
2022/08/28 07:52:53;;;;;;;20.27;18.33;;;;;;;21.23;100.00;100323.13;4969926;28;20226;-74
2022/08/28 07:55:19;;;;;;;22.07;20.10;;;;;;;21.77;100.00;100325.50;4964878;28;20559;-75
2022/08/28 07:57:44;;;;;;;19.73;18.03;;;;;;;21.57;100.00;100327.41;4967245;28;20225;-72
2022/08/28 08:00:11;;;;;;;19.10;17.50;;;;;;;21.26;100.00;100331.69;4971205;28;20185;-73
2022/08/28 08:02:37;;;;;;;18.50;16.93;;;;;;;21.39;100.00;100325.81;4966910;28;20277;-73
2022/08/28 08:05:04;;;;;;;20.00;18.27;;;;;;;21.95;100.00;100326.25;4964070;28;20205;-76
2022/08/28 08:07:29;;;;;;;21.03;19.10;;;;;;;22.06;100.00;100337.06;4970877;28;20285;-73
2022/08/28 08:09:54;;;;;;;19.57;17.90;;;;;;;22.11;100.00;100342.06;4976657;28;20206;-73
2022/08/28 08:12:20;;;;;;;18.00;16.40;;;;;;;22.09;100.00;100343.94;4971200;28;20258;-75
2022/08/28 08:14:47;;;;;;;18.70;17.13;;;;;;;22.00;100.00;100339.22;4967908;28;20259;-72
2022/08/28 08:17:13;;;;;;;19.47;17.90;;;;;;;22.07;100.00;100336.13;4971204;28;20193;-73
2022/08/28 08:19:38;;;;;;;20.93;19.10;;;;;;;21.93;100.00;100351.88;4966207;28;20221;-76
2022/08/28 08:22:04;;;;;;;17.33;15.83;;;;;;;21.64;100.00;100342.94;4965486;28;20581;-73
2022/08/28 08:24:29;;;;;;;16.80;15.30;;;;;;;21.40;100.00;100340.66;4972229;28;20212;-76
2022/08/28 08:26:59;;;;;;;17.53;15.93;;;;;;;21.45;100.00;100354.41;4971639;28;20253;-76
2022/08/28 08:29:25;;;;;;;18.17;16.77;;;;;;;21.60;100.00;100360.69;4970374;28;20190;-75
2022/08/28 08:31:57;;;;;;;18.13;16.63;;;;;;;21.63;100.00;100357.84;4966455;28;20194;-74
2022/08/28 08:34:23;;;;;;;19.50;17.83;;;;;;;21.55;100.00;100357.41;4966774;28;20240;-74
2022/08/28 08:36:48;;;;;;;16.77;15.43;;;;;;;21.29;100.00;100357.84;4966372;28;20696;-74
2022/08/28 08:39:13;;;;;;;20.17;18.53;;;;;;;21.66;100.00;100368.22;4968451;28;20193;-73
2022/08/28 08:41:50;;;;;;;19.13;17.63;;;;;;;21.73;100.00;100364.34;4964481;28;20194;-74
2022/08/28 08:44:27;;;;;;;18.10;16.57;;;;;;;21.57;100.00;100372.19;4966717;28;20190;-75
2022/08/28 08:47:21;;;;;;;20.20;18.40;;;;;;;21.74;100.00;100371.31;4964042;28;20288;-73
2022/08/28 08:50:00;;;;;;;18.87;17.27;;;;;;;22.04;100.00;100365.28;4964599;28;20202;-75
2022/08/28 08:52:39;;;;;;;16.67;15.23;;;;;;;22.10;100.00;100373.78;4964763;28;20212;-77
2022/08/28 08:55:22;;;;;;;17.70;16.23;;;;;;;22.20;100.00;100373.16;4966856;28;20305;-75
2022/08/28 08:58:12;;;;;;;17.17;15.70;;;;;;;22.14;100.00;100378.81;4971793;28;20285;-75
2022/08/28 09:00:49;;;;;;;16.57;15.10;;;;;;;22.08;100.00;100379.97;4968193;28;20186;-74
2022/08/28 09:03:22;;;;;;;16.23;14.73;;;;;;;22.29;100.00;100374.44;4966024;28;20241;-74
2022/08/28 09:05:54;;;;;;;14.47;13.30;;;;;;;21.83;100.00;100380.50;4966473;28;20515;-76
2022/08/28 09:08:40;;;;;;;15.40;14.20;;;;;;;22.01;100.00;100380.41;4967340;28;20702;-76
2022/08/28 09:11:37;;;;;;;15.77;14.13;;;;;;;22.19;100.00;100384.66;4970551;28;20287;-74
2022/08/28 09:14:19;;;;;;;14.33;13.10;;;;;;;22.32;100.00;100387.44;4959647;28;20717;-74
2022/08/28 09:16:46;;;;;;;17.53;16.00;;;;;;;22.60;100.00;100390.34;4965008;28;20189;-75
2022/08/28 09:19:18;;;;;;;19.37;17.80;;;;;;;22.84;100.00;100383.63;4963952;28;20283;-79
2022/08/28 09:21:44;;;;;;;16.43;14.97;;;;;;;22.99;100.00;100381.00;4966912;28;20201;-75
2022/08/28 09:24:19;;;;;;;17.33;16.03;;;;;;;23.39;100.00;100386.53;4963953;28;20182;-75
2022/08/28 09:26:52;;;;;;;14.47;13.20;;;;;;;23.17;100.00;100381.69;4971791;28;20193;-74
2022/08/28 09:29:22;;;;;;;17.00;15.63;;;;;;;23.67;100.00;100383.97;4966553;28;20197;-75
2022/08/28 09:31:48;;;;;;;16.80;15.40;;;;;;;24.06;100.00;100382.41;4971614;28;20301;-76
2022/08/28 09:34:30;;;;;;;14.87;13.73;;;;;;;24.01;100.00;100384.53;4970412;28;20348;-78
2022/08/28 09:36:58;;;;;;;15.60;14.20;;;;;;;24.30;100.00;100382.63;4964590;28;20300;-78
2022/08/28 09:39:24;;;;;;;12.13;11.03;;;;;;;24.06;100.00;100379.78;4972910;28;20217;-75
2022/08/28 09:44:52;;;;;;;11.10;10.03;;;;;;;23.84;100.00;100390.84;4964230;28;20224;-74
2022/08/28 09:47:40;;;;;;;12.13;10.93;;;;;;;23.31;100.00;100383.53;4975352;28;20205;-77
2022/08/28 09:50:29;;;;;;;11.17;10.07;;;;;;;23.09;100.00;100390.06;4971661;28;20325;-73
2022/08/28 09:52:58;;;;;;;12.83;11.73;;;;;;;23.49;100.00;100394.75;4965873;28;20209;-74
2022/08/28 09:55:32;;;;;;;13.33;12.13;;;;;;;23.63;100.00;100383.34;4962859;28;21082;-76
2022/08/28 09:57:58;;;;;;;11.57;10.47;;;;;;;23.65;100.00;100383.22;4970532;28;20201;-75
2022/08/28 10:00:23;;;;;;;12.97;11.77;;;;;;;23.65;100.00;100385.88;4975619;28;20279;-75
2022/08/28 10:02:57;;;;;;;13.07;12.07;;;;;;;23.53;100.00;100387.47;4962264;28;20273;-75
2022/08/28 10:05:48;;;;;;;12.13;11.03;;;;;;;23.32;100.00;100377.31;4963627;28;20206;-74
2022/08/28 10:08:36;;;;;;;12.50;11.53;;;;;;;23.53;100.00;100376.91;4960579;28;20204;-77
2022/08/28 10:11:17;;;;;;;12.70;11.70;;;;;;;23.70;100.00;100391.72;4963152;28;20675;-75
2022/08/28 10:13:57;;;;;;;11.80;10.77;;;;;;;23.73;100.00;100387.09;4961767;28;20209;-75
2022/08/28 10:16:50;;;;;;;12.27;11.13;;;;;;;23.81;100.00;100383.97;4964567;28;20611;-75
2022/08/28 10:19:44;;;;;;;13.90;12.70;;;;;;;23.69;100.00;100379.47;4967825;28;20196;-75
2022/08/28 10:22:38;;;;;;;14.30;13.20;;;;;;;24.13;100.00;100373.16;4966940;28;20197;-76
2022/08/28 10:25:29;;;;;;;12.37;11.37;;;;;;;24.09;100.00;100384.03;4947815;28;20233;-75
2022/08/28 10:28:42;;;;;;;11.40;10.30;;;;;;;23.92;100.00;100374.50;4992833;28;20228;-73
2022/08/28 10:31:19;;;;;;;11.80;10.90;;;;;;;24.23;100.00;100370.78;4974441;28;20213;-76
2022/08/28 10:33:56;;;;;;;9.00;8.20;;;;;;;23.87;100.00;100382.72;4974304;28;20685;-74
2022/08/28 10:36:28;;;;;;;9.23;8.30;;;;;;;23.71;100.00;100374.94;4972565;28;20221;-75
2022/08/28 10:39:06;;;;;;;10.37;9.27;;;;;;;23.70;100.00;100374.06;4973432;28;20229;-75
2022/08/28 10:41:47;;;;;;;9.47;8.60;;;;;;;23.41;100.00;100379.38;4974331;28;20204;-77
2022/08/28 10:44:19;;;;;;;10.13;9.30;;;;;;;23.52;100.00;100367.31;4982641;28;20231;-76
2022/08/28 10:46:49;;;;;;;9.33;8.50;;;;;;;23.17;100.00;100375.56;4972614;28;20248;-74
2022/08/28 10:49:30;;;;;;;10.00;9.10;;;;;;;23.20;100.00;100370.09;4977643;28;20190;-74
2022/08/28 10:52:03;;;;;;;10.43;9.57;;;;;;;23.25;100.00;100368.91;4986230;28;20285;-77
2022/08/28 10:54:52;;;;;;;9.33;8.63;;;;;;;23.16;100.00;100360.66;4972520;28;20272;-77
2022/08/28 10:57:35;;;;;;;9.57;8.73;;;;;;;23.08;100.00;100367.25;4964273;28;20695;-75
2022/08/28 11:00:12;;;;;;;8.53;7.93;;;;;;;22.98;100.00;100366.09;4979517;28;20201;-79
2022/08/28 11:02:47;;;;;;;10.00;9.07;;;;;;;23.06;100.00;100358.59;4973702;28;20548;-75
2022/08/28 11:05:13;;;;;;;9.40;8.50;;;;;;;23.20;100.00;100356.91;4977675;28;20228;-74
2022/08/28 11:07:52;;;;;;;10.23;9.20;;;;;;;23.21;100.00;100361.28;4973703;28;20280;-75
2022/08/28 11:10:36;;;;;;;9.80;9.10;;;;;;;23.42;100.00;100353.81;4974988;28;20566;-75
2022/08/28 11:13:04;;;;;;;8.17;7.37;;;;;;;23.36;100.00;100351.56;4974442;28;20666;-76
2022/08/28 11:15:30;;;;;;;9.07;8.27;;;;;;;23.49;100.00;100354.28;4971651;28;20219;-75
2022/08/28 11:18:14;;;;;;;9.57;7.63;;;;;;;23.42;100.00;100346.75;4972610;28;20185;-74
2022/08/28 11:20:52;;;;;;;8.70;7.90;;;;;;;23.63;100.00;100350.78;4970783;28;20732;-77